Thimphu, Bhutan
Current Conditions -  °F | °C
As of 6:50 AM on Thursday 27 Nov 2014 (Local Time) from VQPR Reporting Station
Haze Haze  
Wind Chill: 43°   Ceiling: 7000
Heat Index: 43°   Visibility: 2.5mi
Dew Point: 36°   Wind: 0mph
Humidity: 76%   Direction: NA
Pressure: 30.12"   Gusts: NA
Location:  27.48°N, 89.7°E
Report Text: VQPR 270050Z 00000KT 4000 BR SCT005 SCT015 BKN070 06/02 Q1020 NOSIG
Loading
Personal Weather Stations






























Interactive Weather Map New forecast layout! Learn more

10-Day Weather Forecast

Advertisements
Track Severe Weather on mobile